Terminal Aerodrome Forecast
Issued by NWS

Home | Current Version | Previous Version | Text Only | Print | Product List | Glossary On
Versions: 1 2 3 4 5 6 7 8 9 10 11 12 13 14
151
FTPA31 PHFO 232349
TAFHJH
TAF
PHJH 232349Z 2400/2424 03018G26KT P6SM FEW030 SCT050
     FM240800 04012G20KT P6SM FEW030 SCT050
     FM242000 04016G24KT P6SM FEW030 SCT050 BKN250
      AMD NOT SKED AFT 240400=

USA.gov is the U.S. government's official web portal to all federal, state and local government web resources and services.